Main page
METAR-TAF:

METAR-TAF

Airports :

Sendai Airport

Sendai, Japan

latitude: 38-08N, longitude: 140-55E, elevation: 1 m

Current weather observation

The report was made 5 hours and 51 minutes ago, at 12:00 UTC
Wind 5 kt from the Southwest
Temperature 2°C
Humidity 69%
Pressure 1026 hPa
Visibility 10 km or more
Few clouds at a height of 2000 ft
Broken clouds

METAR: RJSS 061200Z 23005KT 9999 FEW020 BKN/// 02/M03 Q1026

Time: 02:51 (17:51 UTC)

Forecast

The report was made 46 minutes ago, at 17:05 UTC
Forecast valid from 06 at 18 UTC to 08 at 00 UTC
Wind 4 kt from the West/Southwest
Visibility 10 km or more
Few clouds at a height of 2000 ft
Becoming
from 07 at 01 UTC to 07 at 03 UTC
Wind 5 kt from the South/Southeast
Becoming
from 07 at 06 UTC to 07 at 09 UTC
Wind 8 kt from the West/Southwest
Becoming
from 07 at 15 UTC to 07 at 18 UTC
Wind 10 kt from the Northwest

TAF: RJSS 061705Z 0618/0800 24004KT 9999 FEW020 BECMG 0701/0703 16005KT BECMG 0706/0709 24008KT BECMG 0715/0718 32010KT

Weather observations and forecasts of more than 4000 airports (METAR and TAF reports).

The available stations are represented by yellow and red dots on the map.

Hover mouse over dot to see the name of the station.

Then click to see weather observations and forecasts.

To change the map : click on the green buttons with a black cross to zoom in, on the green button with a dash to zoom out, or on the green arrows for adjacent maps.


METAR-TAF: